createdAt,value
2023-04-10T00:01:15.472Z,17.80
2023-04-10T00:03:43.645Z,16.80
2023-04-10T00:06:11.985Z,17.40
2023-04-10T00:08:39.913Z,15.70
2023-04-10T00:11:07.909Z,16.00
2023-04-10T00:13:36.352Z,14.00
2023-04-10T00:16:04.792Z,17.50
2023-04-10T00:18:32.673Z,18.00
2023-04-10T00:21:00.924Z,17.10
2023-04-10T00:23:31.982Z,18.20
2023-04-10T00:25:59.899Z,17.30
2023-04-10T00:28:28.158Z,19.20
2023-04-10T00:30:56.181Z,16.40
2023-04-10T00:33:24.084Z,17.70
2023-04-10T00:35:52.505Z,17.70
2023-04-10T00:38:21.527Z,17.40
2023-04-10T00:40:49.449Z,18.20
2023-04-10T00:43:20.464Z,17.80
2023-04-10T00:45:49.958Z,18.10
2023-04-10T00:48:19.441Z,18.90
2023-04-10T00:50:47.692Z,18.50
2023-04-10T00:53:17.492Z,18.80
2023-04-10T00:55:46.132Z,18.30
2023-04-10T00:58:14.765Z,17.70
2023-04-10T01:00:42.737Z,17.20
2023-04-10T01:03:12.796Z,21.20
2023-04-10T01:06:06.372Z,20.50
2023-04-10T01:09:22.263Z,23.80
2023-04-10T01:11:52.955Z,21.70
2023-04-10T01:14:27.930Z,22.70
2023-04-10T01:17:07.522Z,19.70
2023-04-10T01:19:51.392Z,23.90
2023-04-10T01:22:26.681Z,19.30
2023-04-10T01:25:10.899Z,23.50
2023-04-10T01:28:17.789Z,21.10
2023-04-10T01:30:52.475Z,19.20
2023-04-10T01:33:22.822Z,18.00
2023-04-10T01:35:55.849Z,20.50
2023-04-10T01:38:28.685Z,18.50
2023-04-10T01:40:59.884Z,21.60
2023-04-10T01:43:32.958Z,19.90
2023-04-10T01:46:03.345Z,22.70
2023-04-10T01:48:31.489Z,21.90
2023-04-10T01:51:05.179Z,22.60
2023-04-10T01:53:34.223Z,20.20
2023-04-10T01:56:03.317Z,23.80
2023-04-10T01:58:36.961Z,21.20
2023-04-10T02:01:06.666Z,24.90
2023-04-10T02:03:34.878Z,20.90
2023-04-10T02:06:15.836Z,23.60
2023-04-10T02:08:53.090Z,30.80
2023-04-10T02:11:41.618Z,27.00
2023-04-10T02:14:12.228Z,24.10
2023-04-10T02:16:41.936Z,26.40
2023-04-10T02:19:13.047Z,33.90
2023-04-10T02:21:42.281Z,30.80
2023-04-10T02:24:10.554Z,27.30
2023-04-10T02:26:58.828Z,38.20
2023-04-10T02:29:26.886Z,25.70
2023-04-10T02:31:55.503Z,29.10
2023-04-10T02:34:23.652Z,28.50
2023-04-10T02:36:52.297Z,31.30
2023-04-10T02:39:20.647Z,33.10
2023-04-10T02:41:51.667Z,29.00
2023-04-10T02:44:19.903Z,27.00
2023-04-10T02:46:47.984Z,33.70
2023-04-10T02:49:16.176Z,32.10
2023-04-10T02:51:45.661Z,29.20
2023-04-10T02:54:13.621Z,30.90
2023-04-10T02:56:41.892Z,31.60
2023-04-10T02:59:09.924Z,26.80
2023-04-10T03:01:39.761Z,30.00
2023-04-10T03:04:08.448Z,27.30
2023-04-10T03:06:39.635Z,33.30
2023-04-10T03:09:08.104Z,38.30
2023-04-10T03:11:36.194Z,35.20
2023-04-10T03:14:04.992Z,33.40
2023-04-10T03:16:33.168Z,38.80
2023-04-10T03:19:04.750Z,36.40
2023-04-10T03:21:33.031Z,35.90
2023-04-10T03:24:01.279Z,38.30
2023-04-10T03:26:29.607Z,33.20
2023-04-10T03:28:58.572Z,39.60
2023-04-10T03:31:26.541Z,38.60
2023-04-10T03:33:57.106Z,34.20
2023-04-10T03:36:25.743Z,33.50
2023-04-10T03:38:54.964Z,32.80
2023-04-10T03:41:25.627Z,35.90
2023-04-10T03:43:54.362Z,29.60
2023-04-10T03:46:23.206Z,33.10
2023-04-10T03:48:54.288Z,31.70
2023-04-10T03:51:24.805Z,28.30
2023-04-10T03:53:53.637Z,25.70
2023-04-10T03:56:22.834Z,27.70
2023-04-10T03:58:51.332Z,27.90
2023-04-10T04:01:19.875Z,25.00
2023-04-10T04:04:01.445Z,22.90
2023-04-10T04:06:58.763Z,28.60
2023-04-10T04:09:59.073Z,29.70
2023-04-10T04:12:39.226Z,30.50
2023-04-10T04:15:43.011Z,29.20
2023-04-10T04:18:19.913Z,24.40
2023-04-10T04:20:56.654Z,24.90
2023-04-10T04:23:40.079Z,23.90
2023-04-10T04:26:31.792Z,19.50
2023-04-10T04:29:15.884Z,23.60
2023-04-10T04:32:10.517Z,19.70
2023-04-10T04:34:58.748Z,23.20
2023-04-10T04:37:46.318Z,25.10
2023-04-10T04:40:37.563Z,23.70
2023-04-10T04:43:21.371Z,29.10
2023-04-10T04:46:02.526Z,30.30
2023-04-10T04:48:59.927Z,34.80
2023-04-10T04:51:47.645Z,32.30
2023-04-10T04:54:28.691Z,33.70
2023-04-10T04:57:32.126Z,23.70
2023-04-10T05:00:18.796Z,33.10
2023-04-10T05:03:02.053Z,45.00
2023-04-10T05:05:37.862Z,36.60
2023-04-10T05:08:24.253Z,27.70
2023-04-10T05:11:06.871Z,24.60
2023-04-10T05:13:53.374Z,24.70
2023-04-10T05:16:27.667Z,24.70
2023-04-10T05:19:12.000Z,33.70
2023-04-10T05:22:00.501Z,25.90
2023-04-10T05:24:45.053Z,24.10
2023-04-10T05:27:17.942Z,24.30
2023-04-10T05:30:04.999Z,23.10
2023-04-10T05:32:39.079Z,29.20
2023-04-10T05:35:39.526Z,22.10
2023-04-10T05:38:20.890Z,21.10
2023-04-10T05:41:01.355Z,23.40
2023-04-10T05:43:42.056Z,25.80
2023-04-10T05:46:33.266Z,30.00
2023-04-10T05:49:22.804Z,24.40
2023-04-10T05:52:04.810Z,25.90
2023-04-10T05:54:47.271Z,26.30
2023-04-10T05:57:51.666Z,25.40
2023-04-10T06:00:53.784Z,24.60
2023-04-10T06:03:51.378Z,21.40
2023-04-10T06:06:20.988Z,26.90
2023-04-10T06:08:48.972Z,24.30
2023-04-10T06:11:17.053Z,26.00
2023-04-10T06:13:48.616Z,26.80
2023-04-10T06:16:17.122Z,26.90
2023-04-10T06:18:46.612Z,26.70
2023-04-10T06:21:14.961Z,24.90
2023-04-10T06:23:42.866Z,26.10
2023-04-10T06:26:11.171Z,22.70
2023-04-10T06:28:39.741Z,25.90
2023-04-10T06:31:07.888Z,30.00
2023-04-10T06:33:37.394Z,30.20
2023-04-10T06:36:07.570Z,32.50
2023-04-10T06:38:39.988Z,31.00
2023-04-10T06:41:09.036Z,28.20
2023-04-10T06:43:39.105Z,26.70
2023-04-10T06:46:07.432Z,29.00
2023-04-10T06:48:35.757Z,24.00
2023-04-10T06:51:04.258Z,23.40
2023-04-10T06:53:32.293Z,23.90
2023-04-10T06:56:03.099Z,23.40
2023-04-10T06:58:32.133Z,21.10
2023-04-10T07:01:04.542Z,22.90
2023-04-10T07:03:32.938Z,21.20
2023-04-10T07:06:03.309Z,19.90
2023-04-10T07:08:31.830Z,20.00
2023-04-10T07:10:59.969Z,19.50
2023-04-10T07:13:28.174Z,21.60
2023-04-10T07:15:56.430Z,22.00
2023-04-10T07:18:24.404Z,19.10
2023-04-10T07:20:52.492Z,21.20
2023-04-10T07:23:20.613Z,18.90
2023-04-10T07:25:48.632Z,19.00
2023-04-10T07:28:16.583Z,17.50
2023-04-10T07:30:44.956Z,18.20
2023-04-10T07:33:13.362Z,18.40
2023-04-10T07:35:41.705Z,20.30
2023-04-10T07:38:12.354Z,17.10
2023-04-10T07:40:40.648Z,16.80
2023-04-10T07:43:08.726Z,13.20
2023-04-10T07:45:37.005Z,13.90
2023-04-10T07:48:06.430Z,14.50
2023-04-10T07:50:35.922Z,15.10
2023-04-10T07:53:07.987Z,14.40
2023-04-10T07:55:45.569Z,13.40
2023-04-10T07:58:13.706Z,12.10
2023-04-10T08:00:42.064Z,16.00
2023-04-10T08:03:10.124Z,13.50
2023-04-10T08:05:41.307Z,15.30
2023-04-10T08:08:09.306Z,13.70
2023-04-10T08:10:38.800Z,12.90
2023-04-10T08:13:06.956Z,12.60
2023-04-10T08:15:35.029Z,12.90
2023-04-10T08:18:02.980Z,12.80
2023-04-10T08:20:37.064Z,13.10
2023-04-10T08:23:17.284Z,12.70
2023-04-10T08:25:48.275Z,11.70
2023-04-10T08:28:16.226Z,10.70
2023-04-10T08:30:44.188Z,10.90
2023-04-10T08:33:12.482Z,11.90
2023-04-10T08:35:40.530Z,11.80
2023-04-10T08:38:13.904Z,13.10
2023-04-10T08:40:44.940Z,9.90
2023-04-10T08:43:13.065Z,10.30
2023-04-10T08:45:41.855Z,11.10
2023-04-10T08:48:12.106Z,10.10
2023-04-10T08:50:43.723Z,9.30
2023-04-10T08:53:13.944Z,11.40
2023-04-10T08:55:44.208Z,11.30
2023-04-10T08:58:13.808Z,10.40
2023-04-10T09:00:42.128Z,10.80
2023-04-10T09:03:12.139Z,10.40
2023-04-10T09:05:40.264Z,9.70
2023-04-10T09:08:09.522Z,10.20
2023-04-10T09:10:37.507Z,9.80
2023-04-10T09:13:05.573Z,8.60
2023-04-10T09:16:00.493Z,8.30
2023-04-10T09:18:51.650Z,8.20
2023-04-10T09:21:21.476Z,10.80
2023-04-10T09:23:59.599Z,11.30
2023-04-10T09:26:30.786Z,8.10
2023-04-10T09:29:10.616Z,10.30
2023-04-10T09:31:40.419Z,9.00
2023-04-10T09:34:09.538Z,8.70
2023-04-10T09:36:38.398Z,9.20
2023-04-10T09:39:07.566Z,8.20
2023-04-10T09:41:35.636Z,10.40
2023-04-10T09:44:12.041Z,8.90
2023-04-10T09:46:41.033Z,7.50
2023-04-10T09:49:09.521Z,10.10
2023-04-10T09:51:39.974Z,8.00
2023-04-10T09:54:08.680Z,10.10
2023-04-10T09:56:40.476Z,8.80
2023-04-10T09:59:08.801Z,8.90
2023-04-10T10:01:40.144Z,8.20
2023-04-10T10:04:09.474Z,11.70
2023-04-10T10:06:39.267Z,10.30
2023-04-10T10:09:08.101Z,8.70
2023-04-10T10:11:36.921Z,10.10
2023-04-10T10:14:13.561Z,9.80
2023-04-10T10:16:50.104Z,9.20
2023-04-10T10:19:46.471Z,9.40
2023-04-10T10:22:14.824Z,7.30
2023-04-10T10:24:47.716Z,6.80
2023-04-10T10:27:18.281Z,8.80
2023-04-10T10:29:49.248Z,8.70
2023-04-10T10:32:18.673Z,7.40
2023-04-10T10:34:48.182Z,8.40
2023-04-10T10:37:17.935Z,7.70
2023-04-10T10:40:14.740Z,8.90
2023-04-10T10:43:04.084Z,9.60
2023-04-10T10:45:52.756Z,9.10
2023-04-10T10:48:20.824Z,7.00
2023-04-10T10:50:59.140Z,7.50
2023-04-10T10:53:38.988Z,8.50
2023-04-10T10:56:22.943Z,6.80
2023-04-10T10:58:56.632Z,6.80
2023-04-10T11:01:25.243Z,6.40
2023-04-10T11:03:53.596Z,8.10
2023-04-10T11:06:43.613Z,5.80
2023-04-10T11:09:46.137Z,8.90
2023-04-10T11:12:15.103Z,8.60
2023-04-10T11:14:45.169Z,8.90
2023-04-10T11:17:13.182Z,7.60
2023-04-10T11:20:11.034Z,8.40
2023-04-10T11:23:14.014Z,7.60
2023-04-10T11:25:54.859Z,7.50
2023-04-10T11:28:31.981Z,8.20
2023-04-10T11:31:24.132Z,8.80
2023-04-10T11:34:04.412Z,7.90
2023-04-10T11:36:34.925Z,6.60
2023-04-10T11:39:14.347Z,8.50
2023-04-10T11:41:44.937Z,6.80
2023-04-10T11:44:16.413Z,8.00
2023-04-10T11:46:51.155Z,6.50
2023-04-10T11:49:21.895Z,7.20
2023-04-10T11:51:52.988Z,8.50
2023-04-10T11:54:21.287Z,9.50
2023-04-10T11:57:18.998Z,7.30
2023-04-10T11:59:51.291Z,8.00
2023-04-10T12:02:19.460Z,6.20
2023-04-10T12:04:57.807Z,6.60
2023-04-10T12:07:31.247Z,6.90
2023-04-10T12:10:00.104Z,8.00
2023-04-10T12:12:39.175Z,7.20
2023-04-10T12:15:27.408Z,8.50
2023-04-10T12:17:56.596Z,7.40
2023-04-10T12:20:27.932Z,7.90
2023-04-10T12:22:57.506Z,7.40
2023-04-10T12:25:25.816Z,8.30
2023-04-10T12:27:53.775Z,8.20
2023-04-10T12:30:22.652Z,7.10
2023-04-10T12:32:53.795Z,8.70
2023-04-10T12:35:38.976Z,6.50
2023-04-10T12:38:07.584Z,7.30
2023-04-10T12:40:35.754Z,6.60
2023-04-10T12:43:03.857Z,8.30
2023-04-10T12:45:45.503Z,6.90
2023-04-10T12:48:23.448Z,8.20
2023-04-10T12:50:52.565Z,5.70
2023-04-10T12:53:20.914Z,6.30
2023-04-10T12:56:05.290Z,7.40
2023-04-10T12:58:33.701Z,8.40
2023-04-10T13:01:07.436Z,6.40
2023-04-10T13:03:37.672Z,6.40
2023-04-10T13:06:09.980Z,6.20
2023-04-10T13:08:38.065Z,7.60
2023-04-10T13:11:06.877Z,6.10
2023-04-10T13:13:34.968Z,5.60
2023-04-10T13:16:03.331Z,6.50
2023-04-10T13:18:31.655Z,8.20
2023-04-10T13:20:59.977Z,9.20
2023-04-10T13:23:28.120Z,7.60
2023-04-10T13:25:56.972Z,6.60
2023-04-10T13:28:25.832Z,6.50
2023-04-10T13:30:54.070Z,7.20
2023-04-10T13:33:22.292Z,7.70
2023-04-10T13:35:50.349Z,7.50
2023-04-10T13:38:20.761Z,5.90
2023-04-10T13:40:49.406Z,8.00
2023-04-10T13:43:17.431Z,7.90
2023-04-10T13:45:45.676Z,7.90
2023-04-10T13:48:16.604Z,7.20
2023-04-10T13:50:44.782Z,7.00
2023-04-10T13:53:13.008Z,5.50
2023-04-10T13:55:43.817Z,8.50
2023-04-10T13:58:13.607Z,7.50
2023-04-10T14:00:44.807Z,6.20
2023-04-10T14:03:12.937Z,7.60
2023-04-10T14:05:41.220Z,6.30
2023-04-10T14:08:11.830Z,7.90
2023-04-10T14:10:39.947Z,6.60
2023-04-10T14:13:08.170Z,7.80
2023-04-10T14:15:36.439Z,9.40
2023-04-10T14:18:04.432Z,7.80
2023-04-10T14:20:32.769Z,7.50
2023-04-10T14:23:04.938Z,5.50
2023-04-10T14:25:32.919Z,6.60
2023-04-10T14:28:01.267Z,8.00
2023-04-10T14:30:31.052Z,6.30
2023-04-10T14:32:59.254Z,8.30
2023-04-10T14:35:27.515Z,6.80
2023-04-10T14:37:55.728Z,6.00
2023-04-10T14:40:25.656Z,8.80
2023-04-10T14:42:53.693Z,8.00
2023-04-10T14:45:21.863Z,7.10
2023-04-10T14:47:49.772Z,5.90
2023-04-10T14:50:17.950Z,7.10
2023-04-10T14:52:46.407Z,9.10
2023-04-10T14:55:14.281Z,5.90
2023-04-10T14:57:42.321Z,5.60
2023-04-10T15:00:10.915Z,6.40
2023-04-10T15:02:39.154Z,6.20
2023-04-10T15:05:07.790Z,9.20
2023-04-10T15:07:36.045Z,6.60
2023-04-10T15:10:04.387Z,6.80
2023-04-10T15:12:32.458Z,7.20
2023-04-10T15:15:01.002Z,6.90
2023-04-10T15:17:30.222Z,7.60
2023-04-10T15:19:58.301Z,5.70
2023-04-10T15:22:27.149Z,7.00
2023-04-10T15:24:55.339Z,8.20
2023-04-10T15:27:23.580Z,7.00
2023-04-10T15:29:51.701Z,8.40
2023-04-10T15:32:19.682Z,6.10
2023-04-10T15:34:47.814Z,8.00
2023-04-10T15:37:16.356Z,6.90
2023-04-10T15:39:44.218Z,8.30
2023-04-10T15:42:12.370Z,9.90
2023-04-10T15:44:40.648Z,7.70
2023-04-10T15:47:08.534Z,6.80
2023-04-10T15:49:38.399Z,6.30
2023-04-10T15:52:07.254Z,6.40
2023-04-10T15:54:36.635Z,8.70
2023-04-10T15:57:04.830Z,7.10
2023-04-10T15:59:33.293Z,7.30
2023-04-10T16:02:01.305Z,7.20
2023-04-10T16:04:30.843Z,5.80
2023-04-10T16:06:59.124Z,8.10
2023-04-10T16:09:27.493Z,8.30
2023-04-10T16:11:56.424Z,10.40
2023-04-10T16:14:24.978Z,7.60
2023-04-10T16:16:52.951Z,7.20
2023-04-10T16:19:24.495Z,6.80
2023-04-10T16:21:52.629Z,6.40
2023-04-10T16:24:20.585Z,6.00
2023-04-10T16:26:51.328Z,11.90
2023-04-10T16:29:20.645Z,7.90
2023-04-10T16:31:50.108Z,9.10
2023-04-10T16:34:18.196Z,7.10
2023-04-10T16:36:46.293Z,7.90
2023-04-10T16:39:14.312Z,6.50
2023-04-10T16:41:42.437Z,7.80
2023-04-10T16:44:10.930Z,9.40
2023-04-10T16:46:38.982Z,7.00
2023-04-10T16:49:07.103Z,6.40
2023-04-10T16:51:35.554Z,7.60
2023-04-10T16:54:04.031Z,6.70
2023-04-10T16:56:34.378Z,7.80
2023-04-10T16:59:02.620Z,7.50
2023-04-10T17:01:31.592Z,7.00
2023-04-10T17:03:59.920Z,8.30
2023-04-10T17:06:28.335Z,8.30
2023-04-10T17:08:56.355Z,8.40
2023-04-10T17:11:24.671Z,10.20
2023-04-10T17:13:52.930Z,11.90
2023-04-10T17:16:21.010Z,9.60
2023-04-10T17:18:50.297Z,11.60
2023-04-10T17:21:18.464Z,8.80
2023-04-10T17:23:46.483Z,9.20
2023-04-10T17:26:16.831Z,9.10
2023-04-10T17:28:46.515Z,12.10
2023-04-10T17:31:16.457Z,15.10
2023-04-10T17:33:44.781Z,15.70
2023-04-10T17:36:13.498Z,20.30
2023-04-10T17:38:42.564Z,20.40
2023-04-10T17:41:13.861Z,21.10
2023-04-10T17:43:42.212Z,19.00
2023-04-10T17:46:15.156Z,20.20
2023-04-10T17:48:45.125Z,21.50
2023-04-10T17:51:13.171Z,18.50
2023-04-10T17:53:41.509Z,24.70
2023-04-10T17:56:19.862Z,22.50
2023-04-10T17:59:02.671Z,27.50
2023-04-10T18:01:31.343Z,28.30
2023-04-10T18:04:03.373Z,26.10
2023-04-10T18:06:32.805Z,26.80
2023-04-10T18:09:00.909Z,23.90
2023-04-10T18:11:28.965Z,28.90
2023-04-10T18:13:57.358Z,26.40
2023-04-10T18:16:25.988Z,31.00
2023-04-10T18:18:54.245Z,28.40
2023-04-10T18:21:22.883Z,24.40
2023-04-10T18:23:50.901Z,25.50
2023-04-10T18:26:21.055Z,21.70
2023-04-10T18:28:49.543Z,22.70
2023-04-10T18:31:19.219Z,22.50
2023-04-10T18:33:53.343Z,18.20
2023-04-10T18:36:32.500Z,19.90
2023-04-10T18:39:00.569Z,17.60
2023-04-10T18:41:28.555Z,22.20
2023-04-10T18:44:04.178Z,20.00
2023-04-10T18:46:33.559Z,16.00
2023-04-10T18:49:03.616Z,18.10
2023-04-10T18:51:35.448Z,23.10
2023-04-10T18:54:09.144Z,18.00
2023-04-10T18:56:38.381Z,19.60
2023-04-10T18:59:06.535Z,21.60
2023-04-10T19:01:35.777Z,19.80
2023-04-10T19:04:04.075Z,16.30
2023-04-10T19:06:33.202Z,17.10
2023-04-10T19:09:02.579Z,19.60
2023-04-10T19:11:30.722Z,17.10
2023-04-10T19:14:01.269Z,25.50
2023-04-10T19:16:29.570Z,33.30
2023-04-10T19:18:57.630Z,34.50
2023-04-10T19:21:26.108Z,33.90
2023-04-10T19:23:55.190Z,39.60
2023-04-10T19:26:23.255Z,45.10
2023-04-10T19:28:51.565Z,49.20
2023-04-10T19:31:21.260Z,48.20
2023-04-10T19:33:49.531Z,58.60
2023-04-10T19:36:19.761Z,59.60
2023-04-10T19:38:51.280Z,68.00
2023-04-10T19:41:19.646Z,63.80
2023-04-10T19:43:48.057Z,60.80
2023-04-10T19:46:20.928Z,53.90
2023-04-10T19:48:49.317Z,43.70
2023-04-10T19:51:19.043Z,45.60
2023-04-10T19:53:47.305Z,46.30
2023-04-10T19:56:17.649Z,44.60
2023-04-10T19:58:47.409Z,47.10
2023-04-10T20:01:16.923Z,45.90
2023-04-10T20:03:45.171Z,43.70
2023-04-10T20:06:13.910Z,42.40
2023-04-10T20:08:42.749Z,44.00
2023-04-10T20:11:11.160Z,45.50
2023-04-10T20:13:41.053Z,43.10
2023-04-10T20:16:11.866Z,44.40
2023-04-10T20:18:40.498Z,47.90
2023-04-10T20:21:09.306Z,43.80
2023-04-10T20:23:37.918Z,43.50
2023-04-10T20:26:06.534Z,44.90
2023-04-10T20:28:34.500Z,45.60
2023-04-10T20:31:02.741Z,44.30
2023-04-10T20:33:31.464Z,49.10
2023-04-10T20:35:59.879Z,43.20
2023-04-10T20:38:28.407Z,45.10
2023-04-10T20:40:56.986Z,47.40
2023-04-10T20:43:26.647Z,43.30
2023-04-10T20:45:54.907Z,45.70
2023-04-10T20:48:22.956Z,45.50
2023-04-10T20:50:52.372Z,43.90
2023-04-10T20:53:20.545Z,44.60
2023-04-10T20:55:52.425Z,50.30
2023-04-10T20:58:20.752Z,47.70
2023-04-10T21:00:53.181Z,43.90
2023-04-10T21:03:21.414Z,48.50
2023-04-10T21:05:51.402Z,49.50
2023-04-10T21:08:21.134Z,43.60
2023-04-10T21:10:49.853Z,47.90
2023-04-10T21:13:17.701Z,41.00
2023-04-10T21:15:48.763Z,46.80
2023-04-10T21:18:17.322Z,48.20
2023-04-10T21:20:45.326Z,46.10
2023-04-10T21:23:13.536Z,45.50
2023-04-10T21:25:41.635Z,41.50
2023-04-10T21:28:09.604Z,47.70
2023-04-10T21:30:37.880Z,45.90
2023-04-10T21:33:05.745Z,43.10
2023-04-10T21:35:33.913Z,42.60
2023-04-10T21:38:02.459Z,43.30
2023-04-10T21:40:34.651Z,49.50
2023-04-10T21:43:05.084Z,47.90
2023-04-10T21:45:37.398Z,49.40
2023-04-10T21:48:05.858Z,46.40
2023-04-10T21:50:33.989Z,49.20
2023-04-10T21:53:02.297Z,48.10
2023-04-10T21:55:30.721Z,43.30
2023-04-10T21:57:58.800Z,46.00
2023-04-10T22:00:26.714Z,50.40
2023-04-10T22:02:57.561Z,47.70
2023-04-10T22:05:26.051Z,54.30
2023-04-10T22:07:53.905Z,52.00
2023-04-10T22:10:22.242Z,49.80
2023-04-10T22:12:50.312Z,45.70
2023-04-10T22:15:19.316Z,48.20
2023-04-10T22:17:48.685Z,45.40
2023-04-10T22:20:16.790Z,44.90
2023-04-10T22:22:46.232Z,51.60
2023-04-10T22:25:14.616Z,44.70
2023-04-10T22:27:42.705Z,44.70
2023-04-10T22:30:11.121Z,48.50
2023-04-10T22:32:39.411Z,45.80
2023-04-10T22:35:08.416Z,47.60
2023-04-10T22:37:36.344Z,48.60
2023-04-10T22:40:05.293Z,41.90
2023-04-10T22:42:33.395Z,43.50
2023-04-10T22:45:01.271Z,47.00
2023-04-10T22:47:30.501Z,45.00
2023-04-10T22:49:58.478Z,44.40
2023-04-10T22:52:26.387Z,41.30
2023-04-10T22:54:54.702Z,44.50
2023-04-10T22:57:22.725Z,40.80
2023-04-10T22:59:50.991Z,41.00
2023-04-10T23:02:19.375Z,40.50
2023-04-10T23:04:47.668Z,36.00
2023-04-10T23:07:15.829Z,38.00
2023-04-10T23:09:43.923Z,33.80
2023-04-10T23:12:11.969Z,36.80
2023-04-10T23:14:39.856Z,35.10
2023-04-10T23:17:08.098Z,36.10
2023-04-10T23:19:36.165Z,32.30
2023-04-10T23:22:07.245Z,32.80
2023-04-10T23:24:35.583Z,31.00
2023-04-10T23:27:07.207Z,31.30
2023-04-10T23:29:35.177Z,29.20
2023-04-10T23:32:03.452Z,27.00
2023-04-10T23:34:31.472Z,30.20
2023-04-10T23:36:59.431Z,30.00
2023-04-10T23:39:27.538Z,30.30
2023-04-10T23:41:57.066Z,32.00
2023-04-10T23:44:25.026Z,26.10
2023-04-10T23:46:53.300Z,28.20
2023-04-10T23:49:23.378Z,28.20
2023-04-10T23:51:51.324Z,25.50
2023-04-10T23:54:19.448Z,26.50
2023-04-10T23:56:47.674Z,30.60
2023-04-10T23:59:17.425Z,26.10
